AirNav   Pilot Hours Calculator
 
 414 users online  

17LA Golden Nugget Lake Charles Heliport
Lake Charles, Louisiana, USA

GOING TO LAKE CHARLES?


FAA INFORMATION EFFECTIVE 22 APRIL 2021

Location

FAA Identifier: 17LA
Lat/Long: 30-12-09.1100N 093-15-46.9300W
30-12.151833N 093-15.782167W
30.2025306,-93.2630361
(estimated)
Elevation: 10 ft. / 3 m (estimated)
From city: 3 miles SE of LAKE CHARLES, LA
Time zone: UTC -5 (UTC -6 during Standard Time)
Zip code: 70629

Heliport Operations

Heliport use: Private use. Permission required prior to landing
Activation date: 12/2016
Control tower: no
ARTCC: HOUSTON CENTER
FSS: DE RIDDER FLIGHT SERVICE STATION
Attendance: UNATNDD
Wind indicator: yes
Segmented circle: no

Heliport Communications

WX ASOS at LCH (5 nm SE): PHONE 337-477-3371
WX AWOS-3 at CWF (6 nm E): 120.0 (337-436-3452)
WX AWOS-3PT at UXL (7 nm SW): 118.175 (337-558-5321)
WX AWOS-3PT at 5R8 (18 nm NW): 121.2 (337-786-1518)

Nearby radio navigation aids

VOR radial/distance  VOR name  Freq  Var
LCHr287/9.0LAKE CHARLES VORTAC113.4007E

 
NDB name  Hdg/Dist  Freq  Var  ID
MOSSY205/7.141804ECW -.-. .--
SULPHUR084/8.227804EAUR .- ..- .-.
DE RIDDER170/33.238504EDXB -.. -..- -...

Heliport Services

Runway Information

Helipad H1

Dimensions: 40 x 40 ft. / 12 x 12 m
Surface: concrete
Runway edge lights: PERI
Traffic pattern: leftleft

Heliport Ownership and Management from official FAA records

Ownership: Privately-owned
Owner: LANDRY'S INC.
1510 W LOOP SOUTH
HOUSTON, TX 77027
Phone 713-645-9191
Manager: KASSEL COON
8251 TRAVELAIR ST.
HOUSTON, TX 77061
Phone 713-645-9191

Additional Remarks

FOR CD CTC LAKE CHARLES APCH AT 337-480-3103, WHEN APCH CLSD CTC HOUSTON ARTCC AT 281-230-5622.

Instrument Procedures

There are no published instrument procedures at 17LA.

Some nearby airports with instrument procedures:

KLCH - Lake Charles Regional Airport (5 nm SE)
KCWF - Chennault International Airport (6 nm E)
KUXL - Southland Field Airport (7 nm SW)
5R8 - De Quincy Industrial Airpark (18 nm NW)
6R1 - Welsh Airport (23 nm E)
 
Loc | Ops | Rwys | IFR | FBO | Links
Com | Nav | Svcs | Stats | Notes
Aerial photo
No photo
 
Airport distance calculator
Flying to Golden Nugget Lake Charles Heliport? Find the distance to fly.

From to 17LA

Sunrise and sunset
Times for 09-May-2021
 Local
(UTC-5)
 Zulu
(UTC)
Morning civil twilight05:5810:58
Sunrise06:2411:24
Sunset19:5500:55
Evening civil twilight20:2101:21

Current date and time
Zulu (UTC)  09-May-2021 07:39:10
Local (UTC-5)  09-May-2021 02:39:10
 
METAR
KLCH 
5nm SE 
090653Z AUTO 17007KT 10SM CLR 23/21 A2992 RMK AO2 SLP140 T02280206
KCWF 
6nm E 
090715Z AUTO 17007KT 10SM CLR 21/19 A2992 RMK AO2 T02140191
KUXL 
7nm SW 
090715Z AUTO 17009KT 10SM SCT022 23/20 A2992 RMK AO2 T02330199 PWINO
K5R8 
18nm NW 
090715Z AUTO 15007KT 10SM CLR 22/19 A2991 RMK AO2 T02210188
TAF
KLCH 
5nm SE 
090520Z 0906/1006 17010KT P6SM SCT250 FM091500 19015G22KT P6SM BKN035 FM100100 18010G15KT P6SM VCSH OVC015
NOTAMs
Click for the latest NOTAMs
NOTAMs are issued by the DoD/FAA and will open in a separate window not controlled by AirNav.

 

 
 

Would you like to see your business listed on this page?

 If your business provides an interesting product or service to pilots, flight crews, aircraft, or users of the Golden Nugget Lake Charles Heliport, you should consider listing it here.  To start the listing process, click on the button below
 
Add a business
 

Other Pages about Golden Nugget Lake Charles Heliport

Update a link
 
Copyright © AirNav, LLC. All rights reserved. Privacy Policy  Contact